createdAt,value
2018-09-02T00:02:11.470Z,6.33
2018-09-02T00:04:40.360Z,6.23
2018-09-02T00:07:09.255Z,7.80
2018-09-02T00:09:38.136Z,4.27
2018-09-02T00:12:07.010Z,6.17
2018-09-02T00:14:35.920Z,5.78
2018-09-02T00:17:04.790Z,6.35
2018-09-02T00:19:33.650Z,6.80
2018-09-02T00:22:02.503Z,7.13
2018-09-02T00:24:31.390Z,7.03
2018-09-02T00:27:00.230Z,5.03
2018-09-02T00:29:29.060Z,6.53
2018-09-02T00:31:57.897Z,6.63
2018-09-02T00:34:26.733Z,10.07
2018-09-02T00:36:55.592Z,6.93
2018-09-02T00:39:24.438Z,6.90
2018-09-02T00:41:53.339Z,7.83
2018-09-02T00:44:22.194Z,5.30
2018-09-02T00:46:51.109Z,5.37
2018-09-02T00:49:19.992Z,5.65
2018-09-02T00:51:48.870Z,8.03
2018-09-02T00:54:17.724Z,8.17
2018-09-02T00:56:46.685Z,8.20
2018-09-02T00:59:15.510Z,5.20
2018-09-02T01:01:44.344Z,9.30
2018-09-02T01:04:13.210Z,6.80
2018-09-02T01:06:42.135Z,7.30
2018-09-02T01:09:11.004Z,6.50
2018-09-02T01:11:39.863Z,6.43
2018-09-02T01:14:09.189Z,9.67
2018-09-02T01:16:38.072Z,5.90
2018-09-02T01:19:06.960Z,6.07
2018-09-02T01:21:35.831Z,6.80
2018-09-02T01:24:04.719Z,8.73
2018-09-02T01:26:33.555Z,9.50
2018-09-02T01:29:02.471Z,5.47
2018-09-02T01:31:31.314Z,7.65
2018-09-02T01:34:00.212Z,7.97
2018-09-02T01:36:29.123Z,7.87
2018-09-02T01:38:57.983Z,8.68
2018-09-02T01:41:26.867Z,9.77
2018-09-02T01:43:55.779Z,8.30
2018-09-02T01:46:24.657Z,9.23
2018-09-02T01:48:53.537Z,10.93
2018-09-02T01:51:22.388Z,8.97
2018-09-02T01:53:51.250Z,7.07
2018-09-02T01:56:20.130Z,7.87
2018-09-02T01:58:49.011Z,9.90
2018-09-02T02:01:17.879Z,9.90
2018-09-02T02:03:46.778Z,12.23
2018-09-02T02:06:15.619Z,8.40
2018-09-02T02:08:44.495Z,8.83
2018-09-02T02:11:13.385Z,10.37
2018-09-02T02:13:42.271Z,7.43
2018-09-02T02:16:11.157Z,11.97
2018-09-02T02:18:40.041Z,8.13
2018-09-02T02:21:08.940Z,9.53
2018-09-02T02:23:37.810Z,11.85
2018-09-02T02:26:06.637Z,9.90
2018-09-02T02:28:35.516Z,7.97
2018-09-02T02:31:04.672Z,7.23
2018-09-02T02:33:33.563Z,8.67
2018-09-02T02:36:02.455Z,7.67
2018-09-02T02:38:31.298Z,9.93
2018-09-02T02:41:00.172Z,8.17
2018-09-02T02:43:29.024Z,7.43
2018-09-02T02:45:57.876Z,10.97
2018-09-02T02:48:26.757Z,9.63
2018-09-02T02:50:55.669Z,10.23
2018-09-02T02:53:24.574Z,8.23
2018-09-02T02:55:53.412Z,11.27
2018-09-02T02:58:22.311Z,8.10
2018-09-02T03:00:51.156Z,12.87
2018-09-02T03:03:20.011Z,10.37
2018-09-02T03:05:48.913Z,9.83
2018-09-02T03:08:17.845Z,11.17
2018-09-02T03:10:46.748Z,7.90
2018-09-02T03:13:15.611Z,8.80
2018-09-02T03:15:44.485Z,8.40
2018-09-02T03:18:13.345Z,9.47
2018-09-02T03:20:42.224Z,11.27
2018-09-02T03:23:11.093Z,9.17
2018-09-02T03:25:39.977Z,11.00
2018-09-02T03:28:08.907Z,11.53
2018-09-02T03:30:37.794Z,10.97
2018-09-02T03:33:06.681Z,11.10
2018-09-02T03:35:35.573Z,9.47
2018-09-02T03:38:04.453Z,11.37
2018-09-02T03:40:33.329Z,13.17
2018-09-02T03:43:02.178Z,12.53
2018-09-02T03:45:31.039Z,11.47
2018-09-02T03:47:59.913Z,10.70
2018-09-02T03:50:28.779Z,11.90
2018-09-02T03:52:57.632Z,12.53
2018-09-02T03:55:26.483Z,11.93
2018-09-02T03:57:55.392Z,10.43
2018-09-02T04:00:24.291Z,14.83
2018-09-02T04:02:53.180Z,11.13
2018-09-02T04:05:22.047Z,16.03
2018-09-02T04:07:50.939Z,13.65
2018-09-02T04:10:19.855Z,14.57
2018-09-02T04:12:48.740Z,10.23
2018-09-02T04:15:17.659Z,13.07
2018-09-02T04:17:46.538Z,11.90
2018-09-02T04:20:20.466Z,11.70
2018-09-02T04:22:49.352Z,14.20
2018-09-02T04:25:18.229Z,12.27
2018-09-02T04:27:47.152Z,13.83
2018-09-02T04:30:16.027Z,12.27
2018-09-02T04:32:44.904Z,13.83
2018-09-02T04:35:13.800Z,12.20
2018-09-02T04:37:42.743Z,14.37
2018-09-02T04:40:11.726Z,14.47
2018-09-02T04:42:40.647Z,14.87
2018-09-02T04:45:09.723Z,13.63
2018-09-02T04:47:38.542Z,13.37
2018-09-02T04:50:16.007Z,15.47
2018-09-02T04:52:44.932Z,14.40
2018-09-02T04:55:13.806Z,15.53
2018-09-02T04:57:43.594Z,15.67
2018-09-02T05:00:12.581Z,15.70
2018-09-02T05:02:41.441Z,13.60
2018-09-02T05:05:10.313Z,14.70
2018-09-02T05:07:39.202Z,13.03
2018-09-02T05:10:08.148Z,14.93
2018-09-02T05:12:37.062Z,13.80
2018-09-02T05:15:05.981Z,15.03
2018-09-02T05:17:35.230Z,18.40
2018-09-02T05:20:04.183Z,18.43
2018-09-02T05:22:33.043Z,16.42
2018-09-02T05:25:01.919Z,17.03
2018-09-02T05:27:30.777Z,17.00
2018-09-02T05:29:59.652Z,15.47
2018-09-02T05:32:28.522Z,17.93
2018-09-02T05:34:57.429Z,18.13
2018-09-02T05:37:26.297Z,16.37
2018-09-02T05:39:55.206Z,17.37
2018-09-02T05:42:24.090Z,16.03
2018-09-02T05:44:52.969Z,17.87
2018-09-02T05:47:21.860Z,14.53
2018-09-02T05:49:50.748Z,18.47
2018-09-02T05:52:19.631Z,19.93
2018-09-02T05:54:48.531Z,16.03
2018-09-02T05:57:17.421Z,19.93
2018-09-02T05:59:46.316Z,19.80
2018-09-02T06:02:15.190Z,18.87
2018-09-02T06:04:44.118Z,18.27
2018-09-02T06:07:13.016Z,16.43
2018-09-02T06:09:41.863Z,20.07
2018-09-02T06:12:10.733Z,17.13
2018-09-02T06:14:39.617Z,16.40
2018-09-02T06:17:08.483Z,17.93
2018-09-02T06:19:37.337Z,20.45
2018-09-02T06:22:06.229Z,17.83
2018-09-02T06:24:35.120Z,17.93
2018-09-02T06:27:03.986Z,16.93
2018-09-02T06:29:32.857Z,22.27
2018-09-02T06:32:01.803Z,24.17
2018-09-02T06:34:30.655Z,23.40
2018-09-02T06:36:59.561Z,20.20
2018-09-02T06:39:28.524Z,19.50
2018-09-02T06:41:57.334Z,19.67
2018-09-02T06:44:26.234Z,18.37
2018-09-02T06:46:55.117Z,20.83
2018-09-02T06:49:23.949Z,19.63
2018-09-02T06:51:52.838Z,21.00
2018-09-02T06:54:22.032Z,19.77
2018-09-02T06:56:50.902Z,19.63
2018-09-02T06:59:19.785Z,18.87
2018-09-02T07:01:48.656Z,18.00
2018-09-02T07:04:17.494Z,18.50
2018-09-02T07:06:46.359Z,20.25
2018-09-02T07:09:15.232Z,17.53
2018-09-02T07:11:44.141Z,17.07
2018-09-02T07:14:13.060Z,15.33
2018-09-02T07:16:41.912Z,18.70
2018-09-02T07:19:10.790Z,17.57
2018-09-02T07:21:39.676Z,14.20
2018-09-02T07:24:08.525Z,14.37
2018-09-02T07:26:37.387Z,15.73
2018-09-02T07:29:06.291Z,14.33
2018-09-02T07:31:35.282Z,17.50
2018-09-02T07:34:04.048Z,15.90
2018-09-02T07:36:32.932Z,16.53
2018-09-02T07:39:01.799Z,13.40
2018-09-02T07:41:30.656Z,15.03
2018-09-02T07:43:59.507Z,16.03
2018-09-02T07:46:28.367Z,13.77
2018-09-02T07:48:57.211Z,13.00
2018-09-02T07:51:26.099Z,12.47
2018-09-02T07:53:54.962Z,14.07
2018-09-02T07:56:23.867Z,12.37
2018-09-02T07:58:52.744Z,11.70
2018-09-02T08:01:21.633Z,12.33
2018-09-02T08:03:50.535Z,10.33
2018-09-02T08:06:19.443Z,8.60
2018-09-02T08:08:48.239Z,9.70
2018-09-02T08:11:17.071Z,8.70
2018-09-02T08:13:45.912Z,9.63
2018-09-02T08:16:14.745Z,8.05
2018-09-02T08:18:43.647Z,6.83
2018-09-02T08:21:12.480Z,8.68
2018-09-02T08:23:41.331Z,6.92
2018-09-02T08:26:10.193Z,8.13
2018-09-02T08:28:39.144Z,8.43
2018-09-02T08:31:08.016Z,6.65
2018-09-02T08:33:36.885Z,6.53
2018-09-02T08:36:05.723Z,10.25
2018-09-02T08:38:34.644Z,7.62
2018-09-02T08:41:03.464Z,6.42
2018-09-02T08:43:32.348Z,5.58
2018-09-02T08:46:01.194Z,6.62
2018-09-02T08:48:30.112Z,7.78
2018-09-02T08:50:59.440Z,6.45
2018-09-02T08:53:33.953Z,7.58
2018-09-02T08:56:06.100Z,8.30
2018-09-02T08:58:35.329Z,8.30
2018-09-02T09:01:09.754Z,6.57
2018-09-02T09:03:39.080Z,6.93
2018-09-02T09:06:10.891Z,6.70
2018-09-02T09:08:45.132Z,6.17
2018-09-02T09:11:18.153Z,5.40
2018-09-02T09:13:50.147Z,6.83
2018-09-02T09:16:22.865Z,7.63
2018-09-02T09:18:51.946Z,6.60
2018-09-02T09:21:21.047Z,6.10
2018-09-02T09:23:50.152Z,7.87
2018-09-02T09:26:19.266Z,7.53
2018-09-02T09:28:48.448Z,6.97
2018-09-02T09:31:17.888Z,5.55
2018-09-02T09:33:48.907Z,5.55
2018-09-02T09:36:18.048Z,7.87
2018-09-02T09:38:47.606Z,4.65
2018-09-02T09:41:17.107Z,4.95
2018-09-02T09:43:50.280Z,5.03
2018-09-02T09:46:19.727Z,5.37
2018-09-02T09:48:48.986Z,4.85
2018-09-02T09:51:18.277Z,5.15
2018-09-02T09:53:47.359Z,7.03
2018-09-02T09:56:19.403Z,4.40
2018-09-02T09:58:48.887Z,5.10
2018-09-02T10:01:18.420Z,5.00
2018-09-02T10:03:47.989Z,5.10
2018-09-02T10:06:17.239Z,5.20
2018-09-02T10:08:48.081Z,6.05
2018-09-02T10:11:18.949Z,4.53
2018-09-02T10:13:51.814Z,6.97
2018-09-02T10:16:20.920Z,4.97
2018-09-02T10:18:50.074Z,5.12
2018-09-02T10:21:27.117Z,5.28
2018-09-02T10:23:56.341Z,5.00
2018-09-02T10:26:25.863Z,5.55
2018-09-02T10:28:55.278Z,4.72
2018-09-02T10:31:26.604Z,4.78
2018-09-02T10:33:58.520Z,6.10
2018-09-02T10:36:27.653Z,6.83
2018-09-02T10:38:59.979Z,5.47
2018-09-02T10:41:29.430Z,5.85
2018-09-02T10:44:02.624Z,5.05
2018-09-02T10:46:37.924Z,5.10
2018-09-02T10:49:07.050Z,5.37
2018-09-02T10:51:37.149Z,5.90
2018-09-02T10:54:09.762Z,4.78
2018-09-02T10:56:42.595Z,4.65
2018-09-02T10:59:12.501Z,4.92
2018-09-02T11:01:42.181Z,4.90
2018-09-02T11:04:21.416Z,4.15
2018-09-02T11:06:53.552Z,4.42
2018-09-02T11:09:23.189Z,4.72
2018-09-02T11:11:55.104Z,5.42
2018-09-02T11:14:24.236Z,4.65
2018-09-02T11:16:56.686Z,4.30
2018-09-02T11:19:23.190Z,5.03
2018-09-02T11:21:52.755Z,5.08
2018-09-02T11:24:22.242Z,4.40
2018-09-02T11:26:56.113Z,5.33
2018-09-02T11:29:31.815Z,4.50
2018-09-02T11:32:02.845Z,3.37
2018-09-02T11:34:31.933Z,5.08
2018-09-02T11:37:01.178Z,3.30
2018-09-02T11:39:32.971Z,4.83
2018-09-02T11:42:05.310Z,4.05
2018-09-02T11:44:37.452Z,3.80
2018-09-02T11:47:06.678Z,3.70
2018-09-02T11:49:36.143Z,3.00
2018-09-02T11:52:07.799Z,3.80
2018-09-02T11:54:37.252Z,3.33
2018-09-02T11:57:06.140Z,6.20
2018-09-02T11:59:35.662Z,3.00
2018-09-02T12:02:04.983Z,4.75
2018-09-02T12:04:34.450Z,5.08
2018-09-02T12:07:04.439Z,4.55
2018-09-02T12:09:34.172Z,3.37
2018-09-02T12:12:03.143Z,4.28
2018-09-02T12:14:35.554Z,4.90
2018-09-02T12:17:04.563Z,5.17
2018-09-02T12:19:33.693Z,4.80
2018-09-02T12:22:03.291Z,4.15
2018-09-02T12:24:32.743Z,4.10
2018-09-02T12:27:02.080Z,4.03
2018-09-02T12:29:34.051Z,5.87
2018-09-02T12:32:03.202Z,5.22
2018-09-02T12:34:35.375Z,3.40
2018-09-02T12:37:07.797Z,4.25
2018-09-02T12:39:39.356Z,4.87
2018-09-02T12:42:08.628Z,4.30
2018-09-02T12:44:39.413Z,3.58
2018-09-02T12:47:10.143Z,4.53
2018-09-02T12:49:39.606Z,5.08
2018-09-02T12:52:12.020Z,3.45
2018-09-02T12:54:42.525Z,4.87
2018-09-02T12:57:16.201Z,3.22
2018-09-02T12:59:48.079Z,3.77
2018-09-02T13:02:21.473Z,3.02
2018-09-02T13:04:53.321Z,3.85
2018-09-02T13:07:25.513Z,5.33
2018-09-02T13:09:54.904Z,3.62
2018-09-02T13:12:26.616Z,4.40
2018-09-02T13:14:53.445Z,3.47
2018-09-02T13:17:23.067Z,3.17
2018-09-02T13:19:52.327Z,3.35
2018-09-02T13:22:23.955Z,4.75
2018-09-02T13:24:53.125Z,4.60
2018-09-02T13:27:22.408Z,4.62
2018-09-02T13:29:54.297Z,3.50
2018-09-02T13:32:23.465Z,5.12
2018-09-02T13:34:52.935Z,3.62
2018-09-02T13:37:22.540Z,5.92
2018-09-02T13:39:52.635Z,3.77
2018-09-02T13:42:21.722Z,3.15
2018-09-02T13:44:50.943Z,3.65
2018-09-02T13:47:20.419Z,3.65
2018-09-02T13:49:49.515Z,3.90
2018-09-02T13:52:19.061Z,4.50
2018-09-02T13:54:48.270Z,4.17
2018-09-02T13:57:17.340Z,3.58
2018-09-02T13:59:46.458Z,4.65
2018-09-02T14:02:18.194Z,3.33
2018-09-02T14:04:47.738Z,4.58
2018-09-02T14:07:19.750Z,4.78
2018-09-02T14:09:49.131Z,3.98
2018-09-02T14:12:18.634Z,3.98
2018-09-02T14:14:50.113Z,3.67
2018-09-02T14:17:20.628Z,4.80
2018-09-02T14:19:52.805Z,5.47
2018-09-02T14:22:22.531Z,4.35
2018-09-02T14:24:53.152Z,3.40
2018-09-02T14:27:22.736Z,4.42
2018-09-02T14:29:51.912Z,3.72
2018-09-02T14:32:21.798Z,4.17
2018-09-02T14:34:50.641Z,3.70
2018-09-02T14:37:19.425Z,4.03
2018-09-02T14:39:48.268Z,5.00
2018-09-02T14:42:17.125Z,3.65
2018-09-02T14:44:45.968Z,3.25
2018-09-02T14:47:14.805Z,4.75
2018-09-02T14:49:43.670Z,2.70
2018-09-02T14:52:12.504Z,4.92
2018-09-02T14:54:41.351Z,4.03
2018-09-02T14:57:10.196Z,3.25
2018-09-02T14:59:39.071Z,3.92
2018-09-02T15:02:07.910Z,5.25
2018-09-02T15:04:36.823Z,3.58
2018-09-02T15:07:05.698Z,3.35
2018-09-02T15:09:34.573Z,3.33
2018-09-02T15:12:03.445Z,3.55
2018-09-02T15:14:32.327Z,5.75
2018-09-02T15:17:01.190Z,3.87
2018-09-02T15:19:30.026Z,3.22
2018-09-02T15:21:58.892Z,3.50
2018-09-02T15:24:27.750Z,3.95
2018-09-02T15:26:56.594Z,4.58
2018-09-02T15:29:25.426Z,3.67
2018-09-02T15:31:54.282Z,3.45
2018-09-02T15:34:23.151Z,4.37
2018-09-02T15:36:52.200Z,3.20
2018-09-02T15:39:21.057Z,3.25
2018-09-02T15:41:49.911Z,3.75
2018-09-02T15:44:18.771Z,4.35
2018-09-02T15:46:47.692Z,3.27
2018-09-02T15:49:16.511Z,5.25
2018-09-02T15:51:45.357Z,3.20
2018-09-02T15:54:14.194Z,5.17
2018-09-02T15:56:43.045Z,3.12
2018-09-02T15:59:11.873Z,8.50
2018-09-02T16:01:40.755Z,8.33
2018-09-02T16:04:09.601Z,3.50
2018-09-02T16:06:38.471Z,3.70
2018-09-02T16:09:08.965Z,3.10
2018-09-02T16:11:37.919Z,2.98
2018-09-02T16:14:07.322Z,4.10
2018-09-02T16:16:36.201Z,4.30
2018-09-02T16:19:05.119Z,4.92
2018-09-02T16:21:33.997Z,3.65
2018-09-02T16:24:02.921Z,3.92
2018-09-02T16:26:31.797Z,3.15
2018-09-02T16:29:00.685Z,4.72
2018-09-02T16:31:29.557Z,3.27
2018-09-02T16:33:58.406Z,3.72
2018-09-02T16:36:27.273Z,5.42
2018-09-02T16:38:56.143Z,4.55
2018-09-02T16:41:25.066Z,3.10
2018-09-02T16:43:53.927Z,4.85
2018-09-02T16:46:22.800Z,3.98
2018-09-02T16:48:51.699Z,4.80
2018-09-02T16:51:20.571Z,3.30
2018-09-02T16:53:49.423Z,3.77
2018-09-02T16:56:18.281Z,4.58
2018-09-02T16:58:47.177Z,4.03
2018-09-02T17:01:16.026Z,3.15
2018-09-02T17:03:48.193Z,3.60
2018-09-02T17:06:17.120Z,4.45
2018-09-02T17:08:45.902Z,4.25
2018-09-02T17:11:14.740Z,3.65
2018-09-02T17:13:43.617Z,4.03
2018-09-02T17:16:12.474Z,3.12
2018-09-02T17:18:41.474Z,4.12
2018-09-02T17:21:10.348Z,3.37
2018-09-02T17:23:39.268Z,3.85
2018-09-02T17:26:08.207Z,3.85
2018-09-02T17:28:37.037Z,3.33
2018-09-02T17:31:05.927Z,3.62
2018-09-02T17:33:34.815Z,3.05
2018-09-02T17:36:03.688Z,4.42
2018-09-02T17:38:32.561Z,3.10
2018-09-02T17:41:01.408Z,5.92
2018-09-02T17:43:30.275Z,2.70
2018-09-02T17:45:59.324Z,3.00
2018-09-02T17:48:28.035Z,2.33
2018-09-02T17:50:56.919Z,2.50
2018-09-02T17:53:25.815Z,4.95
2018-09-02T17:55:54.812Z,2.67
2018-09-02T17:58:23.616Z,2.53
2018-09-02T18:00:54.279Z,3.03
2018-09-02T18:03:23.143Z,4.58
2018-09-02T18:05:52.039Z,3.47
2018-09-02T18:08:20.963Z,2.62
2018-09-02T18:10:49.833Z,4.47
2018-09-02T18:13:18.724Z,3.10
2018-09-02T18:15:47.659Z,4.10
2018-09-02T18:18:16.482Z,5.05
2018-09-02T18:20:45.369Z,4.17
2018-09-02T18:23:14.269Z,3.67
2018-09-02T18:25:43.157Z,3.65
2018-09-02T18:28:14.958Z,4.53
2018-09-02T18:30:43.822Z,3.53
2018-09-02T18:33:12.697Z,3.80
2018-09-02T18:35:41.540Z,2.97
2018-09-02T18:38:10.418Z,5.73
2018-09-02T18:40:39.271Z,2.83
2018-09-02T18:43:08.171Z,3.30
2018-09-02T18:45:37.050Z,3.07
2018-09-02T18:48:05.880Z,4.20
2018-09-02T18:50:34.737Z,2.93
2018-09-02T18:53:03.612Z,3.47
2018-09-02T18:55:32.497Z,3.20
2018-09-02T18:58:01.392Z,4.75
2018-09-02T19:00:30.285Z,3.77
2018-09-02T19:02:59.199Z,7.50
2018-09-02T19:05:28.314Z,4.37
2018-09-02T19:07:57.157Z,3.73
2018-09-02T19:10:26.103Z,7.53
2018-09-02T19:12:54.960Z,3.37
2018-09-02T19:15:23.844Z,2.93
2018-09-02T19:17:52.739Z,3.00
2018-09-02T19:20:21.624Z,5.13
2018-09-02T19:22:50.541Z,4.08
2018-09-02T19:25:19.448Z,3.67
2018-09-02T19:27:48.299Z,7.00
2018-09-02T19:30:17.181Z,4.30
2018-09-02T19:32:46.071Z,3.40
2018-09-02T19:35:14.983Z,3.00
2018-09-02T19:37:43.834Z,4.00
2018-09-02T19:40:13.026Z,4.13
2018-09-02T19:42:41.853Z,3.13
2018-09-02T19:45:10.689Z,3.77
2018-09-02T19:47:39.579Z,4.72
2018-09-02T19:50:08.521Z,4.80
2018-09-02T19:52:37.409Z,5.57
2018-09-02T19:55:06.386Z,5.05
2018-09-02T19:57:35.243Z,7.40
2018-09-02T20:00:04.110Z,3.57
2018-09-02T20:02:32.973Z,3.53
2018-09-02T20:05:01.969Z,3.67
2018-09-02T20:07:30.835Z,3.20
2018-09-02T20:09:59.736Z,3.83
2018-09-02T20:12:28.608Z,4.00
2018-09-02T20:14:57.449Z,4.43
2018-09-02T20:17:26.317Z,4.23
2018-09-02T20:19:55.239Z,3.40
2018-09-02T20:22:24.053Z,3.50
2018-09-02T20:24:52.968Z,3.70
2018-09-02T20:27:21.817Z,3.80
2018-09-02T20:29:50.690Z,5.13
2018-09-02T20:32:19.567Z,5.47
2018-09-02T20:34:48.406Z,4.63
2018-09-02T20:37:17.274Z,5.17
2018-09-02T20:39:46.134Z,4.90
2018-09-02T20:42:15.026Z,4.00
2018-09-02T20:44:43.876Z,4.93
2018-09-02T20:47:12.740Z,5.15
2018-09-02T20:49:41.594Z,4.43
2018-09-02T20:52:10.486Z,4.43
2018-09-02T20:54:39.377Z,3.73
2018-09-02T20:57:08.243Z,4.92
2018-09-02T20:59:37.083Z,4.57
2018-09-02T21:02:06.160Z,4.33
2018-09-02T21:04:34.992Z,5.07
2018-09-02T21:07:03.894Z,5.78
2018-09-02T21:09:32.746Z,4.97
2018-09-02T21:12:01.630Z,4.80
2018-09-02T21:14:30.504Z,5.10
2018-09-02T21:16:59.475Z,4.73
2018-09-02T21:19:28.288Z,4.07
2018-09-02T21:21:57.155Z,4.70
2018-09-02T21:24:26.067Z,5.30
2018-09-02T21:26:54.988Z,4.43
2018-09-02T21:29:23.928Z,4.40
2018-09-02T21:31:52.805Z,5.00
2018-09-02T21:34:21.674Z,5.70
2018-09-02T21:36:50.556Z,4.70
2018-09-02T21:39:19.402Z,4.70
2018-09-02T21:41:48.268Z,7.93
2018-09-02T21:44:17.122Z,5.30
2018-09-02T21:46:46.015Z,5.40
2018-09-02T21:49:14.989Z,5.17
2018-09-02T21:51:43.901Z,4.90
2018-09-02T21:54:12.784Z,5.07
2018-09-02T21:56:41.722Z,5.53
2018-09-02T21:59:10.571Z,6.30
2018-09-02T22:01:39.438Z,7.33
2018-09-02T22:04:08.351Z,4.87
2018-09-02T22:06:37.242Z,4.57
2018-09-02T22:09:15.196Z,4.93
2018-09-02T22:11:44.350Z,5.97
2018-09-02T22:14:13.863Z,5.83
2018-09-02T22:16:43.410Z,5.33
2018-09-02T22:19:12.468Z,5.60
2018-09-02T22:21:41.416Z,5.90
2018-09-02T22:24:10.320Z,5.30
2018-09-02T22:26:39.192Z,6.10
2018-09-02T22:29:08.111Z,6.23
2018-09-02T22:31:36.886Z,6.13
2018-09-02T22:34:05.776Z,8.03
2018-09-02T22:36:34.671Z,8.77
2018-09-02T22:39:05.030Z,6.80
2018-09-02T22:41:33.884Z,6.83
2018-09-02T22:44:02.756Z,6.53
2018-09-02T22:46:31.647Z,7.03
2018-09-02T22:49:00.546Z,7.27
2018-09-02T22:51:29.362Z,6.27
2018-09-02T22:53:58.233Z,6.13
2018-09-02T22:56:27.123Z,6.33
2018-09-02T22:58:55.965Z,7.10
2018-09-02T23:01:24.840Z,6.23
2018-09-02T23:03:53.704Z,8.53
2018-09-02T23:06:22.587Z,6.33
2018-09-02T23:08:51.431Z,7.40
2018-09-02T23:11:20.303Z,6.27
2018-09-02T23:13:49.183Z,8.03
2018-09-02T23:16:18.049Z,8.03
2018-09-02T23:18:46.932Z,12.43
2018-09-02T23:21:15.773Z,7.10
2018-09-02T23:23:44.916Z,7.23
2018-09-02T23:26:13.758Z,7.07
2018-09-02T23:28:42.623Z,7.63
2018-09-02T23:31:11.494Z,7.30
2018-09-02T23:33:40.377Z,8.30
2018-09-02T23:36:09.229Z,8.53
2018-09-02T23:38:38.079Z,7.17
2018-09-02T23:41:07.052Z,7.93
2018-09-02T23:43:35.956Z,7.40
2018-09-02T23:46:04.844Z,8.98
2018-09-02T23:48:33.726Z,7.43
2018-09-02T23:51:02.660Z,7.90
2018-09-02T23:53:31.506Z,7.65
2018-09-02T23:56:00.404Z,6.93
2018-09-02T23:58:29.271Z,7.83
